PHX weather

Phoenix Sky Harbor International Airport
Phoenix, Arizona, United States

Public forecast

Using degrees Fahrenheit for public forecast. Weather courtesy of forecast.io.

METAR (pilot weather report)

Retrieved 2018/12/19 14:51 UTC (47 minutes ago):

KPHX 191451Z 10004KT 10SM FEW250 08/03 A3016 RMK AO2 SLP209 T00780028 53016

TAF (pilot weather forecast)

Retrieved 2018/12/19 12:22 UTC (3 hours ago):

TAF KPHX 191120Z 1912/2018 10004KT P6SM FEW250 FM192100 26004KT P6SM FEW250 FM200400 09004KT P6SM SKC